Time;durP1;ratioP1;P1;durP2;ratioP2;P2;SDS_P1;SDS_P2;PMS_P1;PMS_P2;Temp;Humidity;BMP_temperature;BMP_pressure;BME280_temperature;BME280_humidity;BME280_pressure;Samples;Min_cycle;Max_cycle;Signal;HPM_P1;HPM_P2
2023/07/22 00:00:37;;;;;;;8.30;4.03;;;;;;;;;;2532078;23;20339;-92
2023/07/22 00:01:37;;;;;;;6.60;3.83;;;;;;;;;;2535921;23;19994;-95
2023/07/22 00:02:38;;;;;;;4.75;3.90;;;;;;;;;;2532069;23;20009;-95
2023/07/22 00:03:40;;;;;;;7.30;4.03;;;;;;;;;;2145733;23;10193786;-95
2023/07/22 00:04:42;;;;;;;5.43;4.00;;;;;;;;;;2536678;23;20236;-95
2023/07/22 00:05:43;;;;;;;6.35;3.80;;;;;;;;;;2532199;23;20392;-95
2023/07/22 00:06:44;;;;;;;7.75;3.78;;;;;;;;;;2536427;23;20037;-94
2023/07/22 00:07:44;;;;;;;8.73;4.10;;;;;;;;;;2549554;23;20096;-95
2023/07/22 00:08:45;;;;;;;6.53;3.85;;;;;;;;;;2549313;23;19990;-95
2023/07/22 00:09:45;;;;;;;5.90;3.50;;;;;;;;;;2549375;23;19990;-94
2023/07/22 00:10:46;;;;;;;6.43;3.90;;;;;;;;;;2549258;23;19998;-95
2023/07/22 00:11:46;;;;;;;6.32;4.10;;;;;;;;;;2532280;23;20189;-95
2023/07/22 00:12:46;;;;;;;7.82;3.72;;;;;;;;;;2496487;23;20042;-95
2023/07/22 00:13:47;;;;;;;6.03;3.88;;;;;;;;;;2520217;23;20022;-95
2023/07/22 00:14:47;;;;;;;6.10;3.95;;;;;;;;;;2536577;23;20373;-95
2023/07/22 00:15:48;;;;;;;6.07;4.18;;;;;;;;;;2532189;23;20022;-94
2023/07/22 00:16:48;;;;;;;9.35;3.83;;;;;;;;;;2536331;23;20005;-95
2023/07/22 00:17:50;;;;;;;6.75;3.95;;;;;;;;;;2532287;23;20329;-95
2023/07/22 00:18:50;;;;;;;5.80;3.63;;;;;;;;;;2532210;23;20439;-96
2023/07/22 00:19:51;;;;;;;7.03;3.95;;;;;;;;;;2532211;23;20009;-95
2023/07/22 00:20:51;;;;;;;5.43;3.72;;;;;;;;;;2532287;23;19998;-95
2023/07/22 00:21:52;;;;;;;7.95;3.78;;;;;;;;;;2519689;23;19998;-95
2023/07/22 00:22:52;;;;;;;7.57;4.32;;;;;;;;;;2536388;23;20077;-95
2023/07/22 00:23:53;;;;;;;7.22;3.92;;;;;;;;;;2532195;23;20080;-95
2023/07/22 00:24:53;;;;;;;5.30;3.83;;;;;;;;;;2532132;23;20465;-95
2023/07/22 00:25:54;;;;;;;6.00;4.00;;;;;;;;;;2548734;23;20052;-95
2023/07/22 00:26:54;;;;;;;5.47;3.80;;;;;;;;;;2549352;23;20073;-95
2023/07/22 00:27:57;;;;;;;6.55;4.00;;;;;;;;;;2532130;23;20464;-94
2023/07/22 00:28:59;;;;;;;4.95;3.80;;;;;;;;;;2532144;23;20021;-95
2023/07/22 00:30:00;;;;;;;9.80;3.90;;;;;;;;;;2546203;23;20001;-95
2023/07/22 00:31:03;;;;;;;6.65;3.65;;;;;;;;;;2544030;23;20093;-95
2023/07/22 00:52:55;;;;;;;5.72;4.00;;;;;;;;;;2550715;23;20063;-93
2023/07/22 00:53:56;;;;;;;5.13;4.32;;;;;;;;;;2544533;23;20014;-94
2023/07/22 00:54:58;;;;;;;6.85;4.20;;;;;;;;;;2532612;23;20017;-93
2023/07/22 00:55:58;;;;;;;6.13;4.03;;;;;;;;;;2103154;23;10467040;-95
2023/07/22 00:56:59;;;;;;;5.70;3.97;;;;;;;;;;2544336;23;20005;-95
2023/07/22 00:57:59;;;;;;;4.95;4.40;;;;;;;;;;2532261;23;20141;-94
2023/07/22 00:59:00;;;;;;;9.27;4.53;;;;;;;;;;2532237;23;20114;-93
2023/07/22 01:00:00;;;;;;;7.35;4.10;;;;;;;;;;2544609;23;20399;-92
2023/07/22 01:01:01;;;;;;;7.53;4.22;;;;;;;;;;2546117;23;20002;-93
2023/07/22 01:02:01;;;;;;;8.65;4.18;;;;;;;;;;2545130;23;19994;-94
2023/07/22 01:03:03;;;;;;;4.43;4.00;;;;;;;;;;2550145;23;20032;-93
2023/07/22 01:04:04;;;;;;;6.95;4.30;;;;;;;;;;2558220;23;20004;-94
2023/07/22 01:05:05;;;;;;;9.48;4.43;;;;;;;;;;2562354;23;20000;-96
2023/07/22 01:06:06;;;;;;;9.48;4.07;;;;;;;;;;2544701;23;20001;-95
2023/07/22 01:07:11;;;;;;;5.47;4.07;;;;;;;;;;2544838;23;20108;-95
2023/07/22 01:08:11;;;;;;;5.57;4.22;;;;;;;;;;2545319;23;20008;-95
2023/07/22 01:09:12;;;;;;;6.60;3.78;;;;;;;;;;2532937;23;20080;-95
2023/07/22 01:10:14;;;;;;;6.30;3.90;;;;;;;;;;2532713;23;20321;-95
2023/07/22 01:11:15;;;;;;;7.57;4.53;;;;;;;;;;2533038;23;20471;-95
2023/07/22 01:12:15;;;;;;;5.88;4.30;;;;;;;;;;2533022;23;20021;-95
2023/07/22 01:13:16;;;;;;;6.45;4.20;;;;;;;;;;2541938;23;20052;-94
2023/07/22 01:14:16;;;;;;;4.75;3.83;;;;;;;;;;2557301;23;20538;-95
2023/07/22 01:15:18;;;;;;;4.63;3.78;;;;;;;;;;2532791;23;20073;-95
2023/07/22 01:16:18;;;;;;;5.10;4.00;;;;;;;;;;2545034;23;19993;-95
2023/07/22 01:17:19;;;;;;;5.05;4.00;;;;;;;;;;2532520;23;20080;-95
2023/07/22 01:18:19;;;;;;;5.30;3.95;;;;;;;;;;2532831;23;20457;-95
2023/07/22 01:19:20;;;;;;;6.15;4.43;;;;;;;;;;2532519;23;20014;-94
2023/07/22 01:20:23;;;;;;;7.23;4.08;;;;;;;;;;2413384;23;5083357;-94
2023/07/22 01:21:25;;;;;;;8.10;4.35;;;;;;;;;;2531989;23;20093;-95
2023/07/22 01:22:27;;;;;;;6.57;4.20;;;;;;;;;;2532785;23;19998;-95
2023/07/22 01:23:30;;;;;;;5.85;5.03;;;;;;;;;;2533122;23;20009;-95
2023/07/22 01:24:31;;;;;;;6.63;4.00;;;;;;;;;;2533389;23;20116;-95
2023/07/22 01:25:32;;;;;;;9.13;5.35;;;;;;;;;;2548939;23;19993;-94
2023/07/22 01:26:32;;;;;;;8.70;4.03;;;;;;;;;;2544985;23;19994;-95
2023/07/22 01:27:33;;;;;;;7.13;4.40;;;;;;;;;;2538084;23;19994;-95
2023/07/22 01:28:36;;;;;;;9.45;4.97;;;;;;;;;;2560204;23;20295;-94
2023/07/22 01:29:37;;;;;;;6.80;4.25;;;;;;;;;;2545181;23;20475;-94
2023/07/22 01:30:37;;;;;;;7.30;3.95;;;;;;;;;;2532689;23;20005;-94
2023/07/22 01:31:38;;;;;;;6.70;4.25;;;;;;;;;;2549089;23;19996;-95
2023/07/22 01:32:38;;;;;;;6.93;4.15;;;;;;;;;;2544894;23;20084;-95
2023/07/22 01:33:39;;;;;;;5.70;4.10;;;;;;;;;;2532944;23;20002;-95
2023/07/22 01:40:55;;;;;;;9.40;4.82;;;;;;;;;;2553687;23;20100;-94
2023/07/22 01:41:55;;;;;;;7.07;3.85;;;;;;;;;;2544994;23;20006;-92
2023/07/22 01:42:56;;;;;;;9.60;4.65;;;;;;;;;;2532839;23;20005;-95
2023/07/22 01:43:56;;;;;;;5.43;3.97;;;;;;;;;;2545391;23;20033;-96
2023/07/22 01:44:57;;;;;;;7.22;4.20;;;;;;;;;;2545144;23;20084;-96
2023/07/22 01:45:57;;;;;;;7.63;4.47;;;;;;;;;;2532913;23;19994;-95
2023/07/22 01:47:03;;;;;;;7.40;4.38;;;;;;;;;;2551572;23;20315;-91
2023/07/22 01:48:04;;;;;;;10.23;4.32;;;;;;;;;;2548036;23;20299;-94
2023/07/22 01:49:08;;;;;;;7.38;3.97;;;;;;;;;;2542739;23;19997;-94
2023/07/22 01:50:12;;;;;;;5.85;4.28;;;;;;;;;;2544757;23;19997;-94
2023/07/22 01:51:12;;;;;;;7.03;4.78;;;;;;;;;;2545573;23;20084;-95
2023/07/22 02:16:52;;;;;;;8.20;4.53;;;;;;;;;;2557286;23;20268;-93
2023/07/22 02:17:55;;;;;;;6.13;4.53;;;;;;;;;;2544527;23;20283;-94
2023/07/22 02:18:55;;;;;;;6.47;4.30;;;;;;;;;;2544981;23;20316;-93
2023/07/22 02:19:55;;;;;;;7.78;4.25;;;;;;;;;;2536981;23;20072;-94
2023/07/22 02:20:56;;;;;;;5.30;4.63;;;;;;;;;;2544641;23;20584;-93
2023/07/22 02:21:57;;;;;;;5.93;4.50;;;;;;;;;;2548896;23;20024;-94
2023/07/22 02:22:57;;;;;;;8.20;5.18;;;;;;;;;;2544581;23;20443;-94
2023/07/22 02:23:58;;;;;;;6.20;4.15;;;;;;;;;;2549060;23;19993;-94
2023/07/22 02:24:58;;;;;;;8.38;5.13;;;;;;;;;;2561884;23;19993;-94
2023/07/22 02:25:58;;;;;;;5.38;4.03;;;;;;;;;;2544760;23;19993;-93
2023/07/22 02:26:59;;;;;;;7.10;4.63;;;;;;;;;;2549112;23;20004;-94
2023/07/22 02:28:00;;;;;;;9.27;4.72;;;;;;;;;;2556987;23;19997;-93
2023/07/22 02:29:00;;;;;;;7.32;4.25;;;;;;;;;;2544765;23;20008;-95
2023/07/22 02:30:01;;;;;;;5.20;4.30;;;;;;;;;;2115647;23;10161661;-94
2023/07/22 02:31:07;;;;;;;8.73;4.88;;;;;;;;;;2544438;23;20037;-93
2023/07/22 02:32:08;;;;;;;6.63;4.28;;;;;;;;;;2537366;23;20009;-95
2023/07/22 02:33:08;;;;;;;7.40;4.63;;;;;;;;;;2544855;23;20001;-93
2023/07/22 02:34:09;;;;;;;7.07;4.90;;;;;;;;;;2532563;23;20021;-94
2023/07/22 02:35:10;;;;;;;8.57;4.80;;;;;;;;;;2532512;23;20416;-95
2023/07/22 02:36:10;;;;;;;5.80;4.72;;;;;;;;;;2532764;23;20018;-94
2023/07/22 02:37:11;;;;;;;7.88;4.43;;;;;;;;;;2532651;23;19994;-94
2023/07/22 02:38:11;;;;;;;5.68;4.53;;;;;;;;;;2544714;23;20002;-95
2023/07/22 02:39:11;;;;;;;5.90;4.45;;;;;;;;;;2548940;23;19994;-95
2023/07/22 02:40:12;;;;;;;8.00;4.82;;;;;;;;;;2544620;23;19998;-93
2023/07/22 02:41:12;;;;;;;7.95;4.50;;;;;;;;;;2532576;23;20065;-94
2023/07/22 02:42:13;;;;;;;7.43;4.35;;;;;;;;;;2544862;23;19994;-94
2023/07/22 02:43:13;;;;;;;8.18;4.55;;;;;;;;;;2544946;23;20140;-94
2023/07/22 02:44:14;;;;;;;7.45;4.20;;;;;;;;;;2532637;23;20428;-93
2023/07/22 02:45:14;;;;;;;6.40;4.32;;;;;;;;;;2544749;23;20128;-94
2023/07/22 02:46:15;;;;;;;6.65;4.93;;;;;;;;;;2544804;23;20011;-95
2023/07/22 02:47:16;;;;;;;5.55;4.53;;;;;;;;;;2544871;23;20483;-93
2023/07/22 02:48:16;;;;;;;6.32;5.20;;;;;;;;;;2544808;23;19993;-95
2023/07/22 02:49:16;;;;;;;10.13;5.35;;;;;;;;;;2532706;23;20006;-95
2023/07/22 02:50:17;;;;;;;8.45;5.03;;;;;;;;;;2545303;23;20002;-92
2023/07/22 02:51:17;;;;;;;6.65;4.43;;;;;;;;;;2545182;23;20002;-93
2023/07/22 02:52:18;;;;;;;8.15;5.63;;;;;;;;;;2544847;23;20013;-95
2023/07/22 02:53:19;;;;;;;8.40;5.07;;;;;;;;;;2557205;23;20087;-95
2023/07/22 02:54:19;;;;;;;6.65;4.75;;;;;;;;;;2544833;23;19997;-95
2023/07/22 02:55:20;;;;;;;7.25;4.68;;;;;;;;;;2532481;23;20009;-94
2023/07/22 02:56:20;;;;;;;9.60;5.05;;;;;;;;;;2533019;23;19994;-94
2023/07/22 02:57:21;;;;;;;6.40;4.50;;;;;;;;;;2532535;23;20185;-95
2023/07/22 03:02:00;;;;;;;8.10;4.85;;;;;;;;;;2547629;23;20033;-93
2023/07/22 03:03:01;;;;;;;11.32;5.25;;;;;;;;;;2532964;23;19998;-93
2023/07/22 03:04:02;;;;;;;8.93;5.00;;;;;;;;;;2532353;23;19994;-94
2023/07/22 03:05:08;;;;;;;10.15;4.93;;;;;;;;;;2532365;23;20356;-94
2023/07/22 03:06:09;;;;;;;9.18;5.10;;;;;;;;;;2521357;23;20002;-94
2023/07/22 03:07:10;;;;;;;6.53;5.25;;;;;;;;;;2520668;23;20002;-94
2023/07/22 03:08:10;;;;;;;9.55;5.18;;;;;;;;;;2532541;23;20002;-94
2023/07/22 03:09:11;;;;;;;8.07;5.47;;;;;;;;;;2532486;23;20052;-94
2023/07/22 03:10:12;;;;;;;7.82;4.90;;;;;;;;;;2520586;23;20026;-94
2023/07/22 03:11:12;;;;;;;8.48;5.25;;;;;;;;;;2536691;23;20001;-94
2023/07/22 03:12:13;;;;;;;5.93;4.80;;;;;;;;;;2544764;23;20343;-93
2023/07/22 03:13:13;;;;;;;5.90;5.25;;;;;;;;;;2532515;23;20061;-94
2023/07/22 03:14:14;;;;;;;6.03;4.55;;;;;;;;;;2100291;23;10292864;-93
2023/07/22 03:15:14;;;;;;;6.90;4.88;;;;;;;;;;2532447;23;19994;-93
2023/07/22 03:16:15;;;;;;;9.77;5.25;;;;;;;;;;2532893;23;20021;-94
2023/07/22 03:17:18;;;;;;;8.77;4.90;;;;;;;;;;2532481;23;20065;-93
2023/07/22 03:18:20;;;;;;;7.75;5.25;;;;;;;;;;2521072;23;20061;-94
2023/07/22 03:24:01;;;;;;;6.70;4.95;;;;;;;;;;2553927;23;20013;-95
2023/07/22 03:25:02;;;;;;;7.97;4.72;;;;;;;;;;2554394;23;20001;-95
2023/07/22 03:26:02;;;;;;;8.60;5.53;;;;;;;;;;2559050;23;20017;-94
2023/07/22 03:27:03;;;;;;;6.18;4.70;;;;;;;;;;2544163;23;20001;-95
2023/07/22 03:28:05;;;;;;;7.47;4.70;;;;;;;;;;2532643;23;20021;-95
2023/07/22 03:29:06;;;;;;;7.53;5.05;;;;;;;;;;2532353;23;19994;-94
2023/07/22 03:30:10;;;;;;;8.60;5.07;;;;;;;;;;2531695;23;20009;-94
2023/07/22 03:31:11;;;;;;;8.05;5.22;;;;;;;;;;2532777;23;19998;-95
2023/07/22 03:32:11;;;;;;;10.60;5.22;;;;;;;;;;2543982;23;20055;-95
2023/07/22 03:33:11;;;;;;;7.38;4.82;;;;;;;;;;2544026;23;20466;-94
2023/07/22 03:34:12;;;;;;;9.52;5.50;;;;;;;;;;2531720;23;20441;-93
2023/07/22 03:35:12;;;;;;;8.70;4.93;;;;;;;;;;2531440;23;20518;-95
2023/07/22 03:36:13;;;;;;;10.75;5.60;;;;;;;;;;2531871;23;20428;-95
2023/07/22 03:37:14;;;;;;;11.25;5.10;;;;;;;;;;2531753;23;20463;-95
2023/07/22 03:38:15;;;;;;;7.10;5.32;;;;;;;;;;2532094;23;20082;-93
2023/07/22 03:39:15;;;;;;;8.70;5.20;;;;;;;;;;2547406;23;20001;-93
2023/07/22 03:40:28;;;;;;;10.38;5.32;;;;;;;;;;2546954;23;20020;-93
2023/07/22 03:41:29;;;;;;;8.73;5.28;;;;;;;;;;2546954;23;20159;-95
2023/07/22 03:42:29;;;;;;;8.15;5.28;;;;;;;;;;2543948;23;20071;-94
2023/07/22 03:43:29;;;;;;;6.60;5.75;;;;;;;;;;2544131;23;19994;-94
2023/07/22 03:44:30;;;;;;;7.40;6.20;;;;;;;;;;2105605;23;10334668;-94
2023/07/22 03:45:30;;;;;;;8.23;5.15;;;;;;;;;;2545536;23;20418;-94
2023/07/22 03:46:31;;;;;;;9.60;5.55;;;;;;;;;;2551584;23;19997;-94
2023/07/22 04:06:05;;;;;;;9.75;5.97;;;;;;;;;;2095222;28;20742;-94
2023/07/22 04:07:08;;;;;;;7.95;5.47;;;;;;;;;;2094511;28;20074;-93
2023/07/22 04:08:08;;;;;;;9.80;6.28;;;;;;;;;;2086307;28;20025;-94
2023/07/22 04:09:08;;;;;;;12.32;5.95;;;;;;;;;;2086281;28;20557;-94
2023/07/22 04:10:09;;;;;;;10.98;6.32;;;;;;;;;;2086361;28;20223;-95
2023/07/22 04:11:09;;;;;;;9.25;6.32;;;;;;;;;;2086186;28;20152;-94
2023/07/22 04:12:10;;;;;;;8.57;5.30;;;;;;;;;;2086121;28;20074;-95
2023/07/22 04:13:10;;;;;;;8.93;5.80;;;;;;;;;;2086150;28;20435;-94
2023/07/22 04:14:12;;;;;;;8.82;5.38;;;;;;;;;;2086139;28;20021;-94
2023/07/22 04:15:12;;;;;;;10.80;6.32;;;;;;;;;;2086162;27;20465;-96
2023/07/22 04:16:13;;;;;;;7.22;5.65;;;;;;;;;;2086236;28;20029;-94
2023/07/22 04:17:15;;;;;;;8.65;6.10;;;;;;;;;;2086184;28;20109;-94
2023/07/22 04:18:19;;;;;;;13.05;6.35;;;;;;;;;;2086290;28;20029;-94
2023/07/22 04:19:20;;;;;;;8.18;6.15;;;;;;;;;;2094353;28;20036;-93
2023/07/22 04:20:20;;;;;;;8.50;5.60;;;;;;;;;;2086370;28;20110;-94
2023/07/22 04:21:21;;;;;;;7.78;5.80;;;;;;;;;;2094551;27;20036;-93
2023/07/22 04:22:21;;;;;;;10.38;6.32;;;;;;;;;;2102968;28;20038;-93
2023/07/22 04:23:22;;;;;;;7.60;5.72;;;;;;;;;;2094840;28;20025;-95
2023/07/22 04:24:24;;;;;;;9.35;5.97;;;;;;;;;;2094188;27;20056;-93
2023/07/22 04:25:25;;;;;;;11.65;6.45;;;;;;;;;;2094878;28;20017;-95
2023/07/22 04:26:25;;;;;;;9.52;6.45;;;;;;;;;;2094843;28;20131;-94
2023/07/22 04:27:26;;;;;;;9.35;6.63;;;;;;;;;;2086735;28;20033;-92
2023/07/22 04:28:27;;;;;;;9.35;6.07;;;;;;;;;;2086379;27;20036;-93
2023/07/22 04:29:27;;;;;;;14.68;6.07;;;;;;;;;;2130924;27;20038;-94
2023/07/22 04:30:28;;;;;;;8.10;6.05;;;;;;;;;;2096263;27;20029;-94
2023/07/22 04:31:28;;;;;;;9.60;6.60;;;;;;;;;;2096411;27;20243;-92
2023/07/22 04:32:29;;;;;;;10.73;6.68;;;;;;;;;;2092334;28;20120;-93
2023/07/22 04:33:30;;;;;;;7.90;5.55;;;;;;;;;;2103394;27;20068;-94
2023/07/22 04:34:31;;;;;;;9.85;6.35;;;;;;;;;;2086404;28;20033;-93
2023/07/22 04:35:41;;;;;;;12.93;6.05;;;;;;;;;;1888358;27;10208452;-94
2023/07/22 04:36:41;;;;;;;11.57;6.15;;;;;;;;;;2087329;28;20905;-94
2023/07/22 04:37:41;;;;;;;10.23;5.65;;;;;;;;;;2085988;28;20094;-92
2023/07/22 04:38:42;;;;;;;11.25;7.40;;;;;;;;;;2085910;28;20593;-92
2023/07/22 04:39:46;;;;;;;10.30;5.93;;;;;;;;;;2129482;27;20042;-93
2023/07/22 04:40:46;;;;;;;11.77;6.00;;;;;;;;;;2094359;27;20050;-94
2023/07/22 04:41:47;;;;;;;7.88;6.28;;;;;;;;;;2086074;27;20025;-93
2023/07/22 04:42:47;;;;;;;8.65;5.70;;;;;;;;;;2094431;28;20480;-93
2023/07/22 04:43:48;;;;;;;9.07;5.90;;;;;;;;;;2094253;28;20345;-93
2023/07/22 04:44:48;;;;;;;8.20;5.88;;;;;;;;;;2094327;28;20647;-94
2023/07/22 04:45:49;;;;;;;8.23;6.25;;;;;;;;;;2094213;28;20023;-93
2023/07/22 04:46:49;;;;;;;9.30;5.93;;;;;;;;;;2085896;28;20033;-94
2023/07/22 04:47:52;;;;;;;10.77;6.32;;;;;;;;;;2086000;28;20123;-94
2023/07/22 04:48:54;;;;;;;8.85;5.82;;;;;;;;;;2086506;28;20044;-93
2023/07/22 04:49:55;;;;;;;7.18;5.80;;;;;;;;;;2094282;28;20025;-94
2023/07/22 04:50:55;;;;;;;8.98;5.70;;;;;;;;;;2094255;28;20029;-94
2023/07/22 04:51:56;;;;;;;8.60;5.60;;;;;;;;;;2094304;28;20016;-94
2023/07/22 04:52:56;;;;;;;11.38;6.07;;;;;;;;;;2094062;28;20070;-94
2023/07/22 04:53:56;;;;;;;9.77;5.93;;;;;;;;;;2085888;28;20074;-94
2023/07/22 04:54:57;;;;;;;7.43;4.90;;;;;;;;;;2094079;28;20460;-94
2023/07/22 04:55:57;;;;;;;7.40;5.30;;;;;;;;;;2094256;28;20048;-94
2023/07/22 04:56:59;;;;;;;8.38;5.80;;;;;;;;;;2085833;28;20210;-95
2023/07/22 04:58:00;;;;;;;6.65;4.95;;;;;;;;;;2085883;27;20025;-94
2023/07/22 04:59:00;;;;;;;7.55;5.45;;;;;;;;;;2094041;28;20025;-94
2023/07/22 05:00:04;;;;;;;10.57;6.47;;;;;;;;;;2094439;28;20020;-94
2023/07/22 05:01:05;;;;;;;8.30;5.53;;;;;;;;;;2086265;27;20040;-95
2023/07/22 05:02:05;;;;;;;9.55;5.55;;;;;;;;;;2094115;28;20033;-94
2023/07/22 05:03:06;;;;;;;7.93;4.97;;;;;;;;;;2094820;27;20029;-94
2023/07/22 05:04:06;;;;;;;8.07;5.35;;;;;;;;;;2094888;28;20047;-94
2023/07/22 05:05:07;;;;;;;9.43;5.80;;;;;;;;;;2087387;28;20021;-94
2023/07/22 05:06:08;;;;;;;9.82;5.60;;;;;;;;;;2086445;27;20078;-93
2023/07/22 05:07:08;;;;;;;8.15;5.72;;;;;;;;;;2095551;28;20025;-93
2023/07/22 05:08:09;;;;;;;9.38;6.68;;;;;;;;;;2095815;28;20101;-93
2023/07/22 05:09:09;;;;;;;6.88;5.38;;;;;;;;;;2094380;28;20036;-94
2023/07/22 05:10:12;;;;;;;6.32;5.05;;;;;;;;;;2086418;27;20021;-93
2023/07/22 05:11:12;;;;;;;8.07;5.05;;;;;;;;;;2086149;27;20031;-94
2023/07/22 05:12:12;;;;;;;9.40;6.18;;;;;;;;;;2094090;28;20406;-96
2023/07/22 05:13:13;;;;;;;7.30;5.70;;;;;;;;;;2085543;28;20435;-95
2023/07/22 05:14:13;;;;;;;8.13;5.75;;;;;;;;;;2085765;28;20480;-94
2023/07/22 05:15:28;;;;;;;10.45;5.63;;;;;;;;;;2093931;28;20021;-95
2023/07/22 05:16:29;;;;;;;6.63;5.30;;;;;;;;;;2092995;28;20029;-94
2023/07/22 05:17:31;;;;;;;8.15;5.35;;;;;;;;;;2087985;28;20033;-94
2023/07/22 05:18:31;;;;;;;8.52;5.85;;;;;;;;;;2093564;28;20032;-94
2023/07/22 05:19:32;;;;;;;8.50;5.32;;;;;;;;;;2090297;28;20016;-95
2023/07/22 05:20:32;;;;;;;9.57;6.13;;;;;;;;;;2090589;28;20029;-95
2023/07/22 05:21:32;;;;;;;7.85;5.85;;;;;;;;;;2088267;28;20117;-95
2023/07/22 05:22:33;;;;;;;7.63;5.53;;;;;;;;;;2088362;28;20407;-95
2023/07/22 05:23:33;;;;;;;11.73;5.85;;;;;;;;;;2088405;28;20495;-95
2023/07/22 05:24:34;;;;;;;8.93;5.93;;;;;;;;;;2088372;27;20072;-94
2023/07/22 05:25:34;;;;;;;9.95;5.97;;;;;;;;;;2088454;28;20025;-94
2023/07/22 05:26:35;;;;;;;7.60;5.43;;;;;;;;;;2080439;28;20170;-95
2023/07/22 05:27:36;;;;;;;8.38;5.85;;;;;;;;;;2088361;28;20035;-95
2023/07/22 05:28:36;;;;;;;8.32;5.93;;;;;;;;;;2088764;28;20029;-94
2023/07/22 05:29:37;;;;;;;7.32;5.50;;;;;;;;;;2088233;28;20085;-95
2023/07/22 05:30:37;;;;;;;10.60;6.07;;;;;;;;;;2088327;28;20522;-95
2023/07/22 05:31:38;;;;;;;7.22;5.55;;;;;;;;;;2081132;28;20132;-94
2023/07/22 05:32:39;;;;;;;8.60;6.00;;;;;;;;;;2090527;28;20027;-95
2023/07/22 05:33:39;;;;;;;9.32;6.03;;;;;;;;;;2088477;28;20499;-95
2023/07/22 05:34:40;;;;;;;10.38;5.88;;;;;;;;;;2080443;28;20029;-96
2023/07/22 05:35:40;;;;;;;8.30;5.85;;;;;;;;;;2088467;27;20044;-94
2023/07/22 05:36:40;;;;;;;7.57;5.95;;;;;;;;;;2080204;28;20032;-92
2023/07/22 05:37:41;;;;;;;7.00;5.63;;;;;;;;;;2080536;28;20032;-94
2023/07/22 05:38:41;;;;;;;8.38;6.25;;;;;;;;;;2080385;28;20041;-93
2023/07/22 05:39:42;;;;;;;8.88;6.15;;;;;;;;;;2080242;28;20041;-93
2023/07/22 05:40:43;;;;;;;10.52;6.28;;;;;;;;;;2080590;28;20388;-94
2023/07/22 05:41:43;;;;;;;7.10;5.88;;;;;;;;;;2088528;28;20122;-94
2023/07/22 05:42:44;;;;;;;8.93;5.85;;;;;;;;;;2088261;28;20025;-95
2023/07/22 05:43:44;;;;;;;9.25;6.20;;;;;;;;;;2079846;28;20033;-94
2023/07/22 05:44:44;;;;;;;8.50;6.30;;;;;;;;;;2088271;28;20025;-94
2023/07/22 05:45:45;;;;;;;6.35;5.50;;;;;;;;;;2088257;28;20104;-94
2023/07/22 05:46:45;;;;;;;12.63;6.43;;;;;;;;;;2088514;28;20512;-94
2023/07/22 05:47:46;;;;;;;7.65;6.28;;;;;;;;;;2080002;28;20544;-94
2023/07/22 05:48:46;;;;;;;8.40;6.07;;;;;;;;;;2088499;27;20040;-95
2023/07/22 05:49:47;;;;;;;9.52;5.97;;;;;;;;;;2088931;28;20100;-94
2023/07/22 05:50:47;;;;;;;7.35;5.50;;;;;;;;;;2088777;28;20021;-95
2023/07/22 05:51:48;;;;;;;8.00;5.65;;;;;;;;;;2089573;28;20043;-95
2023/07/22 05:52:49;;;;;;;8.35;5.93;;;;;;;;;;2089289;28;20124;-94
2023/07/22 05:53:49;;;;;;;7.10;5.53;;;;;;;;;;2088305;28;20044;-96
2023/07/22 05:54:50;;;;;;;8.63;6.00;;;;;;;;;;2079968;28;20013;-93
2023/07/22 05:55:50;;;;;;;8.43;6.18;;;;;;;;;;2088091;28;20036;-93
2023/07/22 05:56:50;;;;;;;7.07;5.80;;;;;;;;;;2080117;28;20049;-94
2023/07/22 05:57:51;;;;;;;8.45;5.40;;;;;;;;;;2079930;28;20095;-93
2023/07/22 05:58:53;;;;;;;7.90;5.10;;;;;;;;;;2088368;28;20017;-94
2023/07/22 05:59:53;;;;;;;5.68;5.03;;;;;;;;;;2088113;28;20641;-95
2023/07/22 06:00:55;;;;;;;7.75;5.47;;;;;;;;;;2088352;28;20040;-93
2023/07/22 06:01:55;;;;;;;8.38;5.25;;;;;;;;;;2079919;28;20053;-94
2023/07/22 06:02:56;;;;;;;5.78;4.93;;;;;;;;;;2088202;28;20394;-94
2023/07/22 06:03:56;;;;;;;7.72;5.55;;;;;;;;;;2088024;28;20017;-93
2023/07/22 06:04:57;;;;;;;6.97;5.50;;;;;;;;;;2083153;28;20021;-94
2023/07/22 06:05:57;;;;;;;8.65;5.55;;;;;;;;;;2087884;28;20037;-92
2023/07/22 06:06:58;;;;;;;6.47;5.57;;;;;;;;;;2089532;27;20099;-92
2023/07/22 06:07:58;;;;;;;8.70;5.45;;;;;;;;;;2088745;28;20484;-92
2023/07/22 06:08:59;;;;;;;6.78;5.05;;;;;;;;;;2088539;28;20021;-93
2023/07/22 06:10:00;;;;;;;7.45;5.78;;;;;;;;;;2089127;28;20021;-93
2023/07/22 06:11:00;;;;;;;7.38;5.50;;;;;;;;;;2088727;28;20021;-95
2023/07/22 06:12:01;;;;;;;7.35;5.10;;;;;;;;;;2088768;28;20421;-93
2023/07/22 06:13:03;;;;;;;9.05;5.63;;;;;;;;;;2088016;28;20036;-94
2023/07/22 06:14:04;;;;;;;6.55;5.43;;;;;;;;;;2088334;28;20021;-93
2023/07/22 06:15:05;;;;;;;7.68;5.18;;;;;;;;;;2088066;27;20021;-93
2023/07/22 06:16:05;;;;;;;7.93;5.50;;;;;;;;;;2088160;28;20025;-93
2023/07/22 06:17:06;;;;;;;7.75;5.32;;;;;;;;;;2088663;27;20021;-95
2023/07/22 06:18:08;;;;;;;10.02;6.55;;;;;;;;;;2088054;28;20029;-94
2023/07/22 06:19:09;;;;;;;11.55;6.10;;;;;;;;;;2080105;28;20544;-93
2023/07/22 06:20:18;;;;;;;8.11;5.60;;;;;;;;;;2048926;27;10315369;-95
2023/07/22 06:21:19;;;;;;;8.57;5.20;;;;;;;;;;2088202;28;20272;-93
2023/07/22 06:22:19;;;;;;;6.63;4.85;;;;;;;;;;2080018;28;20449;-93
2023/07/22 06:23:20;;;;;;;8.40;5.05;;;;;;;;;;2079819;28;20025;-94
2023/07/22 06:24:20;;;;;;;7.80;5.55;;;;;;;;;;2079555;28;20021;-93
2023/07/22 06:25:23;;;;;;;6.00;5.40;;;;;;;;;;2079800;28;20037;-93
2023/07/22 06:26:23;;;;;;;9.23;5.55;;;;;;;;;;2079975;28;20025;-94
2023/07/22 06:27:24;;;;;;;7.13;5.30;;;;;;;;;;2088119;28;20034;-94
2023/07/22 06:28:24;;;;;;;12.88;4.82;;;;;;;;;;2087331;28;20484;-94
2023/07/22 06:29:25;;;;;;;5.57;4.80;;;;;;;;;;2087450;28;20451;-93
2023/07/22 06:30:25;;;;;;;7.13;5.10;;;;;;;;;;2079764;28;20438;-95
2023/07/22 06:31:30;;;;;;;6.45;4.85;;;;;;;;;;2087963;28;20104;-94
2023/07/22 06:32:30;;;;;;;6.40;5.35;;;;;;;;;;2088183;28;20120;-94
2023/07/22 06:33:31;;;;;;;6.60;5.32;;;;;;;;;;2080099;28;20081;-93
2023/07/22 06:34:31;;;;;;;5.65;4.85;;;;;;;;;;2088509;28;20055;-94
2023/07/22 06:35:32;;;;;;;9.15;5.22;;;;;;;;;;2087704;28;20013;-94
2023/07/22 06:36:32;;;;;;;5.93;4.97;;;;;;;;;;2079905;28;20029;-94
2023/07/22 06:37:33;;;;;;;7.80;4.95;;;;;;;;;;2079950;28;20484;-94
2023/07/22 06:38:34;;;;;;;6.85;5.30;;;;;;;;;;2079737;28;20079;-94
2023/07/22 06:39:34;;;;;;;10.50;5.50;;;;;;;;;;2088183;28;20484;-94
2023/07/22 06:40:35;;;;;;;6.32;5.40;;;;;;;;;;2088778;28;20029;-95
2023/07/22 06:41:35;;;;;;;6.95;5.18;;;;;;;;;;2079852;28;20029;-95
2023/07/22 06:42:36;;;;;;;6.95;4.97;;;;;;;;;;2079582;28;20049;-95
2023/07/22 06:43:36;;;;;;;7.72;5.47;;;;;;;;;;2087816;28;20029;-94
2023/07/22 06:44:36;;;;;;;6.95;4.97;;;;;;;;;;2087856;28;20079;-95
2023/07/22 06:45:37;;;;;;;6.38;4.75;;;;;;;;;;2088051;28;20041;-95
2023/07/22 06:46:37;;;;;;;8.32;5.20;;;;;;;;;;2088523;28;20483;-95
2023/07/22 06:47:38;;;;;;;5.65;4.47;;;;;;;;;;2088691;28;20500;-95
2023/07/22 06:48:38;;;;;;;6.05;4.57;;;;;;;;;;2081167;28;20088;-94
2023/07/22 06:49:40;;;;;;;7.03;5.28;;;;;;;;;;2080745;28;20041;-91
2023/07/22 06:50:47;;;;;;;7.45;5.20;;;;;;;;;;2080353;28;20033;-95
2023/07/22 06:51:48;;;;;;;10.32;5.60;;;;;;;;;;2095606;28;20032;-93
2023/07/22 06:52:48;;;;;;;9.10;5.55;;;;;;;;;;2085331;28;20049;-94
2023/07/22 06:53:48;;;;;;;7.93;5.07;;;;;;;;;;2080504;28;20605;-93
2023/07/22 06:54:49;;;;;;;6.78;5.18;;;;;;;;;;2088218;28;20082;-93
2023/07/22 06:55:53;;;;;;;6.43;5.28;;;;;;;;;;2088133;27;20037;-94
2023/07/22 06:56:55;;;;;;;6.10;4.88;;;;;;;;;;2088250;28;20047;-95
2023/07/22 06:57:59;;;;;;;7.05;5.30;;;;;;;;;;2080042;28;20063;-94
2023/07/22 06:59:00;;;;;;;9.07;5.40;;;;;;;;;;2087822;28;20032;-95
2023/07/22 07:00:00;;;;;;;5.07;4.40;;;;;;;;;;2088402;28;20021;-95
2023/07/22 07:01:00;;;;;;;6.55;5.03;;;;;;;;;;2088270;27;20049;-94
2023/07/22 07:02:02;;;;;;;6.05;4.70;;;;;;;;;;2088716;28;20021;-94
2023/07/22 07:03:06;;;;;;;7.40;5.10;;;;;;;;;;2087772;28;20025;-95
2023/07/22 07:04:06;;;;;;;7.25;4.70;;;;;;;;;;2088383;28;20057;-94
2023/07/22 07:05:07;;;;;;;7.32;4.78;;;;;;;;;;2088412;28;20484;-94
2023/07/22 07:06:07;;;;;;;5.10;4.60;;;;;;;;;;2088398;28;20033;-94
2023/07/22 07:07:08;;;;;;;8.30;4.65;;;;;;;;;;2090042;28;20100;-93
2023/07/22 07:08:10;;;;;;;9.20;4.68;;;;;;;;;;2092120;28;20032;-94
2023/07/22 07:09:10;;;;;;;6.90;4.75;;;;;;;;;;2081021;28;20033;-93
2023/07/22 07:10:11;;;;;;;6.27;4.63;;;;;;;;;;1754542;27;10001137;-94
2023/07/22 07:11:11;;;;;;;7.68;4.90;;;;;;;;;;2088386;28;20496;-95
2023/07/22 07:12:12;;;;;;;6.65;5.10;;;;;;;;;;2089098;28;20051;-95
2023/07/22 07:13:12;;;;;;;10.70;5.22;;;;;;;;;;2090250;28;20056;-94
2023/07/22 07:14:12;;;;;;;5.63;5.07;;;;;;;;;;2093607;28;20048;-94
2023/07/22 07:15:13;;;;;;;6.72;4.38;;;;;;;;;;2089757;28;20476;-94
2023/07/22 07:16:24;;;;;;;6.78;4.72;;;;;;;;;;2087703;28;20037;-94
2023/07/22 07:17:24;;;;;;;6.80;4.55;;;;;;;;;;2087799;28;20448;-96
2023/07/22 07:18:25;;;;;;;5.07;4.45;;;;;;;;;;2088079;28;20033;-95
2023/07/22 07:19:26;;;;;;;5.35;4.40;;;;;;;;;;2088292;28;20035;-95
2023/07/22 07:20:27;;;;;;;4.93;4.50;;;;;;;;;;2089357;27;20493;-95
2023/07/22 07:21:27;;;;;;;4.97;4.10;;;;;;;;;;2079418;28;20033;-94
2023/07/22 07:22:28;;;;;;;7.03;4.68;;;;;;;;;;2079422;28;20025;-93
2023/07/22 07:23:28;;;;;;;5.32;4.20;;;;;;;;;;2080781;28;20029;-96